sensor_id;sensor_type;location;lat;lon;timestamp;temperature;humidity
11497;DHT22;5805;51.542;7.230;2023-06-26T00:01:52;25.40;85.40
11497;DHT22;5805;51.542;7.230;2023-06-26T00:04:18;25.40;83.50
11497;DHT22;5805;51.542;7.230;2023-06-26T00:06:45;25.40;83.90
11497;DHT22;5805;51.542;7.230;2023-06-26T00:09:10;25.50;83.70
11497;DHT22;5805;51.542;7.230;2023-06-26T00:11:36;25.40;82.30
11497;DHT22;5805;51.542;7.230;2023-06-26T00:14:02;25.50;82.10
11497;DHT22;5805;51.542;7.230;2023-06-26T00:16:27;25.40;81.30
11497;DHT22;5805;51.542;7.230;2023-06-26T00:18:53;25.50;81.40
11497;DHT22;5805;51.542;7.230;2023-06-26T00:21:19;25.40;80.70
11497;DHT22;5805;51.542;7.230;2023-06-26T00:23:46;25.40;80.40
11497;DHT22;5805;51.542;7.230;2023-06-26T00:26:12;25.40;79.90
11497;DHT22;5805;51.542;7.230;2023-06-26T00:28:38;25.40;80.00
11497;DHT22;5805;51.542;7.230;2023-06-26T00:31:03;25.40;79.60
11497;DHT22;5805;51.542;7.230;2023-06-26T00:33:29;25.40;80.10
11497;DHT22;5805;51.542;7.230;2023-06-26T00:35:55;25.40;79.00
11497;DHT22;5805;51.542;7.230;2023-06-26T00:38:21;25.40;79.10
11497;DHT22;5805;51.542;7.230;2023-06-26T00:40:48;25.40;78.50
11497;DHT22;5805;51.542;7.230;2023-06-26T00:43:14;25.40;78.30
11497;DHT22;5805;51.542;7.230;2023-06-26T00:45:39;25.40;78.70
11497;DHT22;5805;51.542;7.230;2023-06-26T00:48:05;25.40;78.60
11497;DHT22;5805;51.542;7.230;2023-06-26T00:50:31;25.40;78.20
11497;DHT22;5805;51.542;7.230;2023-06-26T00:52:57;25.40;78.10
11497;DHT22;5805;51.542;7.230;2023-06-26T00:55:23;25.40;78.40
11497;DHT22;5805;51.542;7.230;2023-06-26T00:57:50;25.30;79.00
11497;DHT22;5805;51.542;7.230;2023-06-26T01:00:16;25.40;79.20
11497;DHT22;5805;51.542;7.230;2023-06-26T01:02:42;25.30;79.00
11497;DHT22;5805;51.542;7.230;2023-06-26T01:05:08;25.30;79.10
11497;DHT22;5805;51.542;7.230;2023-06-26T01:07:34;25.30;79.40
11497;DHT22;5805;51.542;7.230;2023-06-26T01:10:00;25.30;79.20
11497;DHT22;5805;51.542;7.230;2023-06-26T01:12:26;25.30;79.20
11497;DHT22;5805;51.542;7.230;2023-06-26T01:14:53;25.20;79.40
11497;DHT22;5805;51.542;7.230;2023-06-26T01:17:19;25.20;80.70
11497;DHT22;5805;51.542;7.230;2023-06-26T01:19:46;25.20;79.80
11497;DHT22;5805;51.542;7.230;2023-06-26T01:22:18;25.20;79.80
11497;DHT22;5805;51.542;7.230;2023-06-26T01:24:53;25.20;80.00
11497;DHT22;5805;51.542;7.230;2023-06-26T01:27:24;25.10;81.60
11497;DHT22;5805;51.542;7.230;2023-06-26T01:29:51;25.20;82.10
11497;DHT22;5805;51.542;7.230;2023-06-26T01:32:18;25.10;82.00
11497;DHT22;5805;51.542;7.230;2023-06-26T01:34:44;25.10;81.50
11497;DHT22;5805;51.542;7.230;2023-06-26T01:37:10;25.10;81.10
11497;DHT22;5805;51.542;7.230;2023-06-26T01:39:36;25.10;81.00
11497;DHT22;5805;51.542;7.230;2023-06-26T01:42:02;25.10;81.20
11497;DHT22;5805;51.542;7.230;2023-06-26T01:44:30;25.10;81.40
11497;DHT22;5805;51.542;7.230;2023-06-26T01:47:00;25.10;81.90
11497;DHT22;5805;51.542;7.230;2023-06-26T01:49:40;25.00;82.30
11497;DHT22;5805;51.542;7.230;2023-06-26T01:52:19;25.00;82.50
11497;DHT22;5805;51.542;7.230;2023-06-26T01:54:52;25.00;82.00
11497;DHT22;5805;51.542;7.230;2023-06-26T01:57:18;25.00;81.80
11497;DHT22;5805;51.542;7.230;2023-06-26T01:59:47;25.00;81.80
11497;DHT22;5805;51.542;7.230;2023-06-26T02:02:13;25.00;82.10
11497;DHT22;5805;51.542;7.230;2023-06-26T02:04:40;25.00;82.20
11497;DHT22;5805;51.542;7.230;2023-06-26T02:07:06;25.00;82.00
11497;DHT22;5805;51.542;7.230;2023-06-26T02:09:32;24.90;82.40
11497;DHT22;5805;51.542;7.230;2023-06-26T02:11:57;24.90;82.40
11497;DHT22;5805;51.542;7.230;2023-06-26T02:14:23;24.90;81.90
11497;DHT22;5805;51.542;7.230;2023-06-26T02:16:50;24.90;82.80
11497;DHT22;5805;51.542;7.230;2023-06-26T02:19:16;24.90;82.60
11497;DHT22;5805;51.542;7.230;2023-06-26T02:21:41;24.90;82.50
11497;DHT22;5805;51.542;7.230;2023-06-26T02:24:07;24.80;81.70
11497;DHT22;5805;51.542;7.230;2023-06-26T02:26:33;24.80;82.20
11497;DHT22;5805;51.542;7.230;2023-06-26T02:28:58;24.80;82.40
11497;DHT22;5805;51.542;7.230;2023-06-26T02:31:24;24.80;82.70
11497;DHT22;5805;51.542;7.230;2023-06-26T02:33:51;24.80;83.00
11497;DHT22;5805;51.542;7.230;2023-06-26T02:36:17;24.80;85.20
11497;DHT22;5805;51.542;7.230;2023-06-26T02:38:42;24.80;84.70
11497;DHT22;5805;51.542;7.230;2023-06-26T02:41:08;24.70;84.00
11497;DHT22;5805;51.542;7.230;2023-06-26T02:43:34;24.70;85.30
11497;DHT22;5805;51.542;7.230;2023-06-26T02:45:59;24.70;86.30
11497;DHT22;5805;51.542;7.230;2023-06-26T02:48:25;24.60;85.10
11497;DHT22;5805;51.542;7.230;2023-06-26T02:50:52;24.60;84.30
11497;DHT22;5805;51.542;7.230;2023-06-26T02:53:18;24.60;84.80
11497;DHT22;5805;51.542;7.230;2023-06-26T02:55:43;24.60;85.10
11497;DHT22;5805;51.542;7.230;2023-06-26T02:58:09;24.60;84.70
11497;DHT22;5805;51.542;7.230;2023-06-26T03:00:35;24.60;85.50
11497;DHT22;5805;51.542;7.230;2023-06-26T03:03:00;24.60;86.00
11497;DHT22;5805;51.542;7.230;2023-06-26T03:05:26;24.60;86.60
11497;DHT22;5805;51.542;7.230;2023-06-26T03:07:53;24.50;87.20
11497;DHT22;5805;51.542;7.230;2023-06-26T03:10:19;24.50;86.20
11497;DHT22;5805;51.542;7.230;2023-06-26T03:12:44;24.50;86.20
11497;DHT22;5805;51.542;7.230;2023-06-26T03:15:10;24.50;86.90
11497;DHT22;5805;51.542;7.230;2023-06-26T03:17:36;24.50;87.80
11497;DHT22;5805;51.542;7.230;2023-06-26T03:20:01;24.50;87.30
11497;DHT22;5805;51.542;7.230;2023-06-26T03:22:27;24.50;87.10
11497;DHT22;5805;51.542;7.230;2023-06-26T03:24:54;24.50;87.00
11497;DHT22;5805;51.542;7.230;2023-06-26T03:27:20;24.50;86.70
11497;DHT22;5805;51.542;7.230;2023-06-26T03:29:46;24.40;87.00
11497;DHT22;5805;51.542;7.230;2023-06-26T03:32:11;24.40;87.40
11497;DHT22;5805;51.542;7.230;2023-06-26T03:34:37;24.40;87.20
11497;DHT22;5805;51.542;7.230;2023-06-26T03:37:03;24.30;87.10
11497;DHT22;5805;51.542;7.230;2023-06-26T03:39:29;24.40;87.80
11497;DHT22;5805;51.542;7.230;2023-06-26T03:41:56;24.40;87.90
11497;DHT22;5805;51.542;7.230;2023-06-26T03:44:22;24.30;87.70
11497;DHT22;5805;51.542;7.230;2023-06-26T03:46:48;24.30;88.20
11497;DHT22;5805;51.542;7.230;2023-06-26T03:49:13;24.30;89.10
11497;DHT22;5805;51.542;7.230;2023-06-26T03:51:39;24.30;89.20
11497;DHT22;5805;51.542;7.230;2023-06-26T03:54:05;24.30;90.00
11497;DHT22;5805;51.542;7.230;2023-06-26T03:56:30;23.90;90.30
11497;DHT22;5805;51.542;7.230;2023-06-26T03:58:57;24.30;90.70
11497;DHT22;5805;51.542;7.230;2023-06-26T04:01:23;24.30;91.30
11497;DHT22;5805;51.542;7.230;2023-06-26T04:03:49;24.40;91.70
11497;DHT22;5805;51.542;7.230;2023-06-26T04:06:15;24.30;91.90
11497;DHT22;5805;51.542;7.230;2023-06-26T04:08:40;24.40;92.20
11497;DHT22;5805;51.542;7.230;2023-06-26T04:11:06;24.40;92.60
11497;DHT22;5805;51.542;7.230;2023-06-26T04:13:32;24.50;93.20
11497;DHT22;5805;51.542;7.230;2023-06-26T04:15:59;24.40;93.40
11497;DHT22;5805;51.542;7.230;2023-06-26T04:18:24;24.50;93.80
11497;DHT22;5805;51.542;7.230;2023-06-26T04:21:08;24.50;94.30
11497;DHT22;5805;51.542;7.230;2023-06-26T04:23:34;24.50;95.10
11497;DHT22;5805;51.542;7.230;2023-06-26T04:26:00;24.50;94.80
11497;DHT22;5805;51.542;7.230;2023-06-26T04:28:26;24.60;95.10
11497;DHT22;5805;51.542;7.230;2023-06-26T04:30:51;24.60;95.40
11497;DHT22;5805;51.542;7.230;2023-06-26T04:33:18;24.60;95.60
11497;DHT22;5805;51.542;7.230;2023-06-26T04:35:44;24.60;95.90
11497;DHT22;5805;51.542;7.230;2023-06-26T04:38:10;24.60;95.90
11497;DHT22;5805;51.542;7.230;2023-06-26T04:40:36;24.60;96.50
11497;DHT22;5805;51.542;7.230;2023-06-26T04:43:02;24.60;96.30
11497;DHT22;5805;51.542;7.230;2023-06-26T04:45:29;24.60;96.50
11497;DHT22;5805;51.542;7.230;2023-06-26T04:47:55;24.60;96.70
11497;DHT22;5805;51.542;7.230;2023-06-26T04:50:22;24.60;96.90
11497;DHT22;5805;51.542;7.230;2023-06-26T04:52:48;24.60;97.00
11497;DHT22;5805;51.542;7.230;2023-06-26T04:55:13;24.70;96.90
11497;DHT22;5805;51.542;7.230;2023-06-26T04:57:39;24.80;96.90
11497;DHT22;5805;51.542;7.230;2023-06-26T05:00:06;24.80;96.70
11497;DHT22;5805;51.542;7.230;2023-06-26T05:02:32;24.90;96.70
11497;DHT22;5805;51.542;7.230;2023-06-26T05:04:57;25.00;96.70
11497;DHT22;5805;51.542;7.230;2023-06-26T05:07:24;25.00;96.90
11497;DHT22;5805;51.542;7.230;2023-06-26T05:09:50;25.10;96.70
11497;DHT22;5805;51.542;7.230;2023-06-26T05:12:16;25.10;96.60
11497;DHT22;5805;51.542;7.230;2023-06-26T05:14:41;25.10;96.70
11497;DHT22;5805;51.542;7.230;2023-06-26T05:17:07;25.20;96.60
11497;DHT22;5805;51.542;7.230;2023-06-26T05:19:33;25.30;96.90
11497;DHT22;5805;51.542;7.230;2023-06-26T05:21:59;25.30;96.40
11497;DHT22;5805;51.542;7.230;2023-06-26T05:24:27;25.40;96.30
11497;DHT22;5805;51.542;7.230;2023-06-26T05:26:54;25.40;96.20
11497;DHT22;5805;51.542;7.230;2023-06-26T05:29:20;25.40;95.50
11497;DHT22;5805;51.542;7.230;2023-06-26T05:31:47;25.50;95.30
11497;DHT22;5805;51.542;7.230;2023-06-26T05:34:15;25.50;95.20
11497;DHT22;5805;51.542;7.230;2023-06-26T05:36:42;25.40;94.80
11497;DHT22;5805;51.542;7.230;2023-06-26T05:39:08;25.40;94.90
11497;DHT22;5805;51.542;7.230;2023-06-26T05:41:36;25.40;95.10
11497;DHT22;5805;51.542;7.230;2023-06-26T05:44:02;25.40;94.90
11497;DHT22;5805;51.542;7.230;2023-06-26T05:46:27;25.40;94.70
11497;DHT22;5805;51.542;7.230;2023-06-26T05:48:53;25.40;94.80
11497;DHT22;5805;51.542;7.230;2023-06-26T05:51:19;25.40;94.60
11497;DHT22;5805;51.542;7.230;2023-06-26T05:53:45;25.50;94.60
11497;DHT22;5805;51.542;7.230;2023-06-26T05:56:12;25.60;94.70
11497;DHT22;5805;51.542;7.230;2023-06-26T05:58:41;25.80;94.50
11497;DHT22;5805;51.542;7.230;2023-06-26T06:01:08;26.00;94.00
11497;DHT22;5805;51.542;7.230;2023-06-26T06:03:33;26.20;93.60
11497;DHT22;5805;51.542;7.230;2023-06-26T06:05:59;26.20;92.50
11497;DHT22;5805;51.542;7.230;2023-06-26T06:08:25;26.00;92.80
11497;DHT22;5805;51.542;7.230;2023-06-26T06:10:50;25.90;93.30
11497;DHT22;5805;51.542;7.230;2023-06-26T06:13:16;25.70;93.80
11497;DHT22;5805;51.542;7.230;2023-06-26T06:15:43;25.60;94.40
11497;DHT22;5805;51.542;7.230;2023-06-26T06:18:09;25.60;94.80
11497;DHT22;5805;51.542;7.230;2023-06-26T06:20:35;25.70;94.80
11497;DHT22;5805;51.542;7.230;2023-06-26T06:23:00;25.80;94.70
11497;DHT22;5805;51.542;7.230;2023-06-26T06:25:26;26.00;94.40
11497;DHT22;5805;51.542;7.230;2023-06-26T06:27:52;26.20;94.00
11497;DHT22;5805;51.542;7.230;2023-06-26T06:30:18;26.50;94.10
11497;DHT22;5805;51.542;7.230;2023-06-26T06:32:45;27.00;92.90
11497;DHT22;5805;51.542;7.230;2023-06-26T06:35:11;27.50;91.30
11497;DHT22;5805;51.542;7.230;2023-06-26T06:37:37;27.90;87.50
11497;DHT22;5805;51.542;7.230;2023-06-26T06:40:03;28.00;84.00
11497;DHT22;5805;51.542;7.230;2023-06-26T06:42:29;27.90;82.40
11497;DHT22;5805;51.542;7.230;2023-06-26T06:44:54;27.70;84.30
11497;DHT22;5805;51.542;7.230;2023-06-26T06:47:20;27.50;87.60
11497;DHT22;5805;51.542;7.230;2023-06-26T06:49:47;27.10;91.80
11497;DHT22;5805;51.542;7.230;2023-06-26T06:52:13;26.80;93.50
11497;DHT22;5805;51.542;7.230;2023-06-26T06:54:52;26.60;95.50
11497;DHT22;5805;51.542;7.230;2023-06-26T06:57:17;26.30;97.20
11497;DHT22;5805;51.542;7.230;2023-06-26T06:59:43;26.00;97.60
11497;DHT22;5805;51.542;7.230;2023-06-26T07:02:09;26.00;99.70
11497;DHT22;5805;51.542;7.230;2023-06-26T07:04:34;26.50;98.30
11497;DHT22;5805;51.542;7.230;2023-06-26T07:07:02;27.50;96.40
11497;DHT22;5805;51.542;7.230;2023-06-26T07:09:27;28.40;92.60
11497;DHT22;5805;51.542;7.230;2023-06-26T07:11:53;28.90;86.90
11497;DHT22;5805;51.542;7.230;2023-06-26T07:14:19;28.80;84.60
11497;DHT22;5805;51.542;7.230;2023-06-26T07:16:44;28.50;84.40
11497;DHT22;5805;51.542;7.230;2023-06-26T07:19:10;28.10;86.90
11497;DHT22;5805;51.542;7.230;2023-06-26T07:21:36;27.80;88.80
11497;DHT22;5805;51.542;7.230;2023-06-26T07:24:03;27.40;90.40
11497;DHT22;5805;51.542;7.230;2023-06-26T07:26:29;27.20;91.80
11497;DHT22;5805;51.542;7.230;2023-06-26T07:28:54;27.00;92.70
11497;DHT22;5805;51.542;7.230;2023-06-26T07:31:20;27.00;93.30
11497;DHT22;5805;51.542;7.230;2023-06-26T07:33:45;27.00;93.70
11497;DHT22;5805;51.542;7.230;2023-06-26T07:36:11;26.90;93.70
11497;DHT22;5805;51.542;7.230;2023-06-26T07:38:37;26.80;93.80
11497;DHT22;5805;51.542;7.230;2023-06-26T07:41:04;26.80;93.90
11497;DHT22;5805;51.542;7.230;2023-06-26T07:43:30;26.80;93.60
11497;DHT22;5805;51.542;7.230;2023-06-26T07:45:55;26.90;94.20
11497;DHT22;5805;51.542;7.230;2023-06-26T07:48:21;27.00;93.70
11497;DHT22;5805;51.542;7.230;2023-06-26T07:50:47;27.00;93.10
11497;DHT22;5805;51.542;7.230;2023-06-26T07:53:12;27.20;92.90
11497;DHT22;5805;51.542;7.230;2023-06-26T07:55:38;27.20;92.40
11497;DHT22;5805;51.542;7.230;2023-06-26T07:58:06;27.30;92.20
11497;DHT22;5805;51.542;7.230;2023-06-26T08:00:32;27.40;92.30
11497;DHT22;5805;51.542;7.230;2023-06-26T08:02:58;27.50;92.30
11497;DHT22;5805;51.542;7.230;2023-06-26T08:05:23;27.50;92.60
11497;DHT22;5805;51.542;7.230;2023-06-26T08:07:49;27.50;91.90
11497;DHT22;5805;51.542;7.230;2023-06-26T08:10:15;27.30;92.40
11497;DHT22;5805;51.542;7.230;2023-06-26T08:12:41;27.20;92.90
11497;DHT22;5805;51.542;7.230;2023-06-26T08:15:09;27.70;93.40
11497;DHT22;5805;51.542;7.230;2023-06-26T08:17:35;28.50;90.50
11497;DHT22;5805;51.542;7.230;2023-06-26T08:20:00;28.80;84.30
11497;DHT22;5805;51.542;7.230;2023-06-26T08:22:26;28.80;82.30
11497;DHT22;5805;51.542;7.230;2023-06-26T08:24:52;29.00;82.90
11497;DHT22;5805;51.542;7.230;2023-06-26T08:27:17;29.80;79.80
11497;DHT22;5805;51.542;7.230;2023-06-26T08:29:43;31.20;73.00
11497;DHT22;5805;51.542;7.230;2023-06-26T08:32:10;31.80;66.10
11497;DHT22;5805;51.542;7.230;2023-06-26T08:34:36;31.70;63.20
11497;DHT22;5805;51.542;7.230;2023-06-26T08:37:01;31.60;62.60
11497;DHT22;5805;51.542;7.230;2023-06-26T08:39:27;31.70;62.70
11497;DHT22;5805;51.542;7.230;2023-06-26T08:41:53;31.50;60.30
11497;DHT22;5805;51.542;7.230;2023-06-26T08:44:19;31.10;61.00
11497;DHT22;5805;51.542;7.230;2023-06-26T08:46:45;30.70;62.40
11497;DHT22;5805;51.542;7.230;2023-06-26T08:49:14;30.30;63.30
11497;DHT22;5805;51.542;7.230;2023-06-26T08:51:48;29.90;65.20
11497;DHT22;5805;51.542;7.230;2023-06-26T08:54:19;29.60;66.50
11497;DHT22;5805;51.542;7.230;2023-06-26T08:56:47;29.30;66.60
11497;DHT22;5805;51.542;7.230;2023-06-26T08:59:14;29.00;68.70
11497;DHT22;5805;51.542;7.230;2023-06-26T09:01:40;28.80;71.20
11497;DHT22;5805;51.542;7.230;2023-06-26T09:04:06;29.00;72.70
11497;DHT22;5805;51.542;7.230;2023-06-26T09:06:34;30.20;69.00
11497;DHT22;5805;51.542;7.230;2023-06-26T09:08:59;31.30;62.70
11497;DHT22;5805;51.542;7.230;2023-06-26T09:11:25;31.10;60.00
11497;DHT22;5805;51.542;7.230;2023-06-26T09:13:52;30.40;61.30
11497;DHT22;5805;51.542;7.230;2023-06-26T09:16:17;29.90;62.90
11497;DHT22;5805;51.542;7.230;2023-06-26T09:18:45;29.60;64.00
11497;DHT22;5805;51.542;7.230;2023-06-26T09:21:11;29.40;65.30
11497;DHT22;5805;51.542;7.230;2023-06-26T09:23:39;29.10;67.10
11497;DHT22;5805;51.542;7.230;2023-06-26T09:26:05;29.20;67.60
11497;DHT22;5805;51.542;7.230;2023-06-26T09:28:32;29.50;67.50
11497;DHT22;5805;51.542;7.230;2023-06-26T09:31:01;29.80;66.70
11497;DHT22;5805;51.542;7.230;2023-06-26T09:33:26;30.00;65.70
11497;DHT22;5805;51.542;7.230;2023-06-26T09:35:52;30.20;64.70
11497;DHT22;5805;51.542;7.230;2023-06-26T09:38:18;30.10;63.80
11497;DHT22;5805;51.542;7.230;2023-06-26T09:40:45;29.90;63.60
11497;DHT22;5805;51.542;7.230;2023-06-26T09:43:13;29.70;64.80
11497;DHT22;5805;51.542;7.230;2023-06-26T09:45:39;29.60;63.50
11497;DHT22;5805;51.542;7.230;2023-06-26T09:48:06;29.60;63.40
11497;DHT22;5805;51.542;7.230;2023-06-26T09:50:32;29.70;63.70
11497;DHT22;5805;51.542;7.230;2023-06-26T09:52:58;29.60;64.00
11497;DHT22;5805;51.542;7.230;2023-06-26T09:55:25;29.50;62.40
11497;DHT22;5805;51.542;7.230;2023-06-26T09:57:57;29.50;62.50
11497;DHT22;5805;51.542;7.230;2023-06-26T10:00:24;29.50;62.20
11497;DHT22;5805;51.542;7.230;2023-06-26T10:02:50;29.50;61.40
11497;DHT22;5805;51.542;7.230;2023-06-26T10:05:15;29.60;62.00
11497;DHT22;5805;51.542;7.230;2023-06-26T10:07:41;29.70;62.30
11497;DHT22;5805;51.542;7.230;2023-06-26T10:10:08;29.70;62.00
11497;DHT22;5805;51.542;7.230;2023-06-26T10:12:35;29.80;61.00
11497;DHT22;5805;51.542;7.230;2023-06-26T10:15:03;29.70;57.90
11497;DHT22;5805;51.542;7.230;2023-06-26T10:17:32;29.70;57.30
11497;DHT22;5805;51.542;7.230;2023-06-26T10:20:02;29.70;57.80
11497;DHT22;5805;51.542;7.230;2023-06-26T10:22:32;29.80;57.30
11497;DHT22;5805;51.542;7.230;2023-06-26T10:24:59;29.90;57.20
11497;DHT22;5805;51.542;7.230;2023-06-26T10:27:28;29.90;57.00
11497;DHT22;5805;51.542;7.230;2023-06-26T10:29:56;29.80;54.40
11497;DHT22;5805;51.542;7.230;2023-06-26T10:32:26;29.80;54.70
11497;DHT22;5805;51.542;7.230;2023-06-26T10:34:52;29.90;54.70
11497;DHT22;5805;51.542;7.230;2023-06-26T10:37:18;30.10;54.40
11497;DHT22;5805;51.542;7.230;2023-06-26T10:39:48;30.10;53.90
11497;DHT22;5805;51.542;7.230;2023-06-26T10:42:13;30.10;53.60
11497;DHT22;5805;51.542;7.230;2023-06-26T10:44:43;30.10;53.40
11497;DHT22;5805;51.542;7.230;2023-06-26T10:47:09;30.10;53.70
11497;DHT22;5805;51.542;7.230;2023-06-26T10:49:37;30.30;53.70
11497;DHT22;5805;51.542;7.230;2023-06-26T10:52:04;30.40;53.50
11497;DHT22;5805;51.542;7.230;2023-06-26T10:54:31;30.60;53.30
11497;DHT22;5805;51.542;7.230;2023-06-26T10:56:57;30.60;52.90
11497;DHT22;5805;51.542;7.230;2023-06-26T10:59:25;30.40;51.80
11497;DHT22;5805;51.542;7.230;2023-06-26T11:01:55;30.30;52.40
11497;DHT22;5805;51.542;7.230;2023-06-26T11:04:38;30.30;51.70
11497;DHT22;5805;51.542;7.230;2023-06-26T11:07:18;30.40;51.10
11497;DHT22;5805;51.542;7.230;2023-06-26T11:09:55;30.30;50.90
11497;DHT22;5805;51.542;7.230;2023-06-26T11:12:34;30.20;50.80
11497;DHT22;5805;51.542;7.230;2023-06-26T11:15:00;29.80;51.80
11497;DHT22;5805;51.542;7.230;2023-06-26T11:17:26;29.30;53.30
11497;DHT22;5805;51.542;7.230;2023-06-26T11:19:54;28.90;55.00
11497;DHT22;5805;51.542;7.230;2023-06-26T11:22:20;28.90;56.00
11497;DHT22;5805;51.542;7.230;2023-06-26T11:24:47;29.00;55.50
11497;DHT22;5805;51.542;7.230;2023-06-26T11:27:14;29.00;55.10
11497;DHT22;5805;51.542;7.230;2023-06-26T11:29:47;29.10;54.60
11497;DHT22;5805;51.542;7.230;2023-06-26T11:32:13;29.20;54.10
11497;DHT22;5805;51.542;7.230;2023-06-26T11:34:39;29.40;54.20
11497;DHT22;5805;51.542;7.230;2023-06-26T11:37:06;29.50;53.60
11497;DHT22;5805;51.542;7.230;2023-06-26T11:39:32;29.50;52.40
11497;DHT22;5805;51.542;7.230;2023-06-26T11:41:59;29.50;52.30
11497;DHT22;5805;51.542;7.230;2023-06-26T11:44:29;29.40;52.10
11497;DHT22;5805;51.542;7.230;2023-06-26T11:46:56;29.20;52.30
11497;DHT22;5805;51.542;7.230;2023-06-26T11:49:22;29.20;53.20
11497;DHT22;5805;51.542;7.230;2023-06-26T11:51:48;29.20;52.50
11497;DHT22;5805;51.542;7.230;2023-06-26T11:54:22;29.30;50.80
11497;DHT22;5805;51.542;7.230;2023-06-26T11:56:52;29.40;50.20
11497;DHT22;5805;51.542;7.230;2023-06-26T11:59:18;29.50;50.00
11497;DHT22;5805;51.542;7.230;2023-06-26T12:01:44;29.60;50.40
11497;DHT22;5805;51.542;7.230;2023-06-26T12:04:11;29.50;48.90
11497;DHT22;5805;51.542;7.230;2023-06-26T12:06:38;29.40;49.20
11497;DHT22;5805;51.542;7.230;2023-06-26T12:09:06;29.30;48.30
11497;DHT22;5805;51.542;7.230;2023-06-26T12:11:34;29.30;48.60
11497;DHT22;5805;51.542;7.230;2023-06-26T12:14:00;29.30;49.20
11497;DHT22;5805;51.542;7.230;2023-06-26T12:16:27;29.20;48.20
11497;DHT22;5805;51.542;7.230;2023-06-26T12:18:58;29.20;48.70
11497;DHT22;5805;51.542;7.230;2023-06-26T12:21:46;29.20;49.20
11497;DHT22;5805;51.542;7.230;2023-06-26T12:24:14;29.30;48.40
11497;DHT22;5805;51.542;7.230;2023-06-26T12:26:43;29.30;47.70
11497;DHT22;5805;51.542;7.230;2023-06-26T12:29:11;29.20;47.10
11497;DHT22;5805;51.542;7.230;2023-06-26T12:31:40;29.10;46.60
11497;DHT22;5805;51.542;7.230;2023-06-26T12:34:09;29.10;46.70
11497;DHT22;5805;51.542;7.230;2023-06-26T12:36:39;29.20;46.70
11497;DHT22;5805;51.542;7.230;2023-06-26T12:39:05;29.30;46.30
11497;DHT22;5805;51.542;7.230;2023-06-26T12:41:31;29.30;44.60
11497;DHT22;5805;51.542;7.230;2023-06-26T12:43:58;29.20;44.30
11497;DHT22;5805;51.542;7.230;2023-06-26T12:46:33;29.10;44.70
11497;DHT22;5805;51.542;7.230;2023-06-26T12:49:00;29.00;43.70
11497;DHT22;5805;51.542;7.230;2023-06-26T12:51:25;28.90;43.90
11497;DHT22;5805;51.542;7.230;2023-06-26T12:53:51;28.80;42.70
11497;DHT22;5805;51.542;7.230;2023-06-26T12:56:17;28.90;43.30
11497;DHT22;5805;51.542;7.230;2023-06-26T12:58:42;29.10;43.50
11497;DHT22;5805;51.542;7.230;2023-06-26T13:01:10;29.20;42.30
11497;DHT22;5805;51.542;7.230;2023-06-26T13:03:35;29.10;42.10
11497;DHT22;5805;51.542;7.230;2023-06-26T13:06:01;28.90;42.60
11497;DHT22;5805;51.542;7.230;2023-06-26T13:08:27;28.90;43.50
11497;DHT22;5805;51.542;7.230;2023-06-26T13:10:52;28.90;43.90
11497;DHT22;5805;51.542;7.230;2023-06-26T13:13:18;28.90;43.10
11497;DHT22;5805;51.542;7.230;2023-06-26T13:15:44;28.80;42.70
11497;DHT22;5805;51.542;7.230;2023-06-26T13:18:11;28.70;43.10
11497;DHT22;5805;51.542;7.230;2023-06-26T13:20:37;28.60;44.10
11497;DHT22;5805;51.542;7.230;2023-06-26T13:23:02;28.60;44.20
11497;DHT22;5805;51.542;7.230;2023-06-26T13:25:29;28.50;44.10
11497;DHT22;5805;51.542;7.230;2023-06-26T13:27:55;28.40;43.40
11497;DHT22;5805;51.542;7.230;2023-06-26T13:30:21;28.40;43.60
11497;DHT22;5805;51.542;7.230;2023-06-26T13:32:47;28.30;43.50
11497;DHT22;5805;51.542;7.230;2023-06-26T13:35:14;28.30;43.10
11497;DHT22;5805;51.542;7.230;2023-06-26T13:37:40;28.20;43.00
11497;DHT22;5805;51.542;7.230;2023-06-26T13:40:07;28.10;41.50
11497;DHT22;5805;51.542;7.230;2023-06-26T13:42:34;28.00;41.50
11497;DHT22;5805;51.542;7.230;2023-06-26T13:45:00;27.90;42.10
11497;DHT22;5805;51.542;7.230;2023-06-26T13:47:26;27.80;41.20
11497;DHT22;5805;51.542;7.230;2023-06-26T13:49:52;27.70;40.40
11497;DHT22;5805;51.542;7.230;2023-06-26T13:52:19;27.50;39.20
11497;DHT22;5805;51.542;7.230;2023-06-26T13:54:45;27.50;40.00
11497;DHT22;5805;51.542;7.230;2023-06-26T13:57:11;27.50;39.20
11497;DHT22;5805;51.542;7.230;2023-06-26T13:59:38;27.30;38.90
11497;DHT22;5805;51.542;7.230;2023-06-26T14:02:04;27.30;38.60
11497;DHT22;5805;51.542;7.230;2023-06-26T14:04:30;27.30;38.50
11497;DHT22;5805;51.542;7.230;2023-06-26T14:06:56;27.30;38.50
11497;DHT22;5805;51.542;7.230;2023-06-26T14:09:23;27.40;39.30
11497;DHT22;5805;51.542;7.230;2023-06-26T14:11:49;27.40;39.00
11497;DHT22;5805;51.542;7.230;2023-06-26T14:14:14;27.40;39.40
11497;DHT22;5805;51.542;7.230;2023-06-26T14:16:40;27.40;40.20
11497;DHT22;5805;51.542;7.230;2023-06-26T14:19:06;27.50;40.40
11497;DHT22;5805;51.542;7.230;2023-06-26T14:21:31;27.60;40.80
11497;DHT22;5805;51.542;7.230;2023-06-26T14:23:57;27.60;40.40
11497;DHT22;5805;51.542;7.230;2023-06-26T14:26:24;27.60;40.00
11497;DHT22;5805;51.542;7.230;2023-06-26T14:28:50;27.70;40.20
11497;DHT22;5805;51.542;7.230;2023-06-26T14:31:15;27.80;39.60
11497;DHT22;5805;51.542;7.230;2023-06-26T14:33:41;27.80;39.60
11497;DHT22;5805;51.542;7.230;2023-06-26T14:36:07;27.80;39.00
11497;DHT22;5805;51.542;7.230;2023-06-26T14:38:33;27.90;39.30
11497;DHT22;5805;51.542;7.230;2023-06-26T14:40:58;28.00;39.80
11497;DHT22;5805;51.542;7.230;2023-06-26T14:43:26;28.10;40.00
11497;DHT22;5805;51.542;7.230;2023-06-26T14:45:51;28.00;39.90
11497;DHT22;5805;51.542;7.230;2023-06-26T14:48:17;27.90;40.00
11497;DHT22;5805;51.542;7.230;2023-06-26T14:50:43;27.70;41.10
11497;DHT22;5805;51.542;7.230;2023-06-26T14:53:08;27.60;42.20
11497;DHT22;5805;51.542;7.230;2023-06-26T14:55:34;27.50;43.70
11497;DHT22;5805;51.542;7.230;2023-06-26T14:58:00;27.30;44.20
11497;DHT22;5805;51.542;7.230;2023-06-26T15:00:27;27.20;45.40
11497;DHT22;5805;51.542;7.230;2023-06-26T15:02:55;27.20;45.10
11497;DHT22;5805;51.542;7.230;2023-06-26T15:05:21;27.10;45.50
11497;DHT22;5805;51.542;7.230;2023-06-26T15:07:47;27.20;45.90
11497;DHT22;5805;51.542;7.230;2023-06-26T15:10:13;27.30;46.20
11497;DHT22;5805;51.542;7.230;2023-06-26T15:12:38;27.40;45.60
11497;DHT22;5805;51.542;7.230;2023-06-26T15:15:05;27.40;45.80
11497;DHT22;5805;51.542;7.230;2023-06-26T15:17:32;27.30;45.90
11497;DHT22;5805;51.542;7.230;2023-06-26T15:19:58;27.30;46.10
11497;DHT22;5805;51.542;7.230;2023-06-26T15:22:26;27.30;46.10
11497;DHT22;5805;51.542;7.230;2023-06-26T15:24:52;27.30;45.40
11497;DHT22;5805;51.542;7.230;2023-06-26T15:27:17;27.20;45.60
11497;DHT22;5805;51.542;7.230;2023-06-26T15:29:43;27.10;46.00
11497;DHT22;5805;51.542;7.230;2023-06-26T15:32:10;27.10;45.80
11497;DHT22;5805;51.542;7.230;2023-06-26T15:34:37;27.00;46.10
11497;DHT22;5805;51.542;7.230;2023-06-26T15:37:03;27.00;46.00
11497;DHT22;5805;51.542;7.230;2023-06-26T15:39:28;27.00;46.00
11497;DHT22;5805;51.542;7.230;2023-06-26T15:41:54;26.90;45.90